Time;durP1;ratioP1;P1;durP2;ratioP2;P2;SDS_P1;SDS_P2;PMS_P1;PMS_P2;Temp;Humidity;BMP_temperature;BMP_pressure;BME280_temperature;BME280_humidity;BME280_pressure;Samples;Min_cycle;Max_cycle;Signal;HPM_P1;HPM_P2
2021/03/10 00:01:08;;;;;;;22.80;19.20;;;7.40;85.80;;;;;;10479265;28;20627;-79
2021/03/10 00:06:10;;;;;;;20.10;16.60;;;7.40;85.50;;;;;;10462268;28;20279;-79
2021/03/10 00:11:12;;;;;;;21.93;18.43;;;7.40;85.60;;;;;;10460179;28;20712;-79
2021/03/10 00:16:14;;;;;;;19.70;17.60;;;7.40;85.20;;;;;;10455001;28;20224;-79
2021/03/10 00:21:16;;;;;;;21.37;19.07;;;7.40;85.20;;;;;;10485562;28;20636;-79
2021/03/10 00:26:18;;;;;;;20.10;18.00;;;7.40;86.20;;;;;;10481570;28;20735;-79
2021/03/10 00:31:20;;;;;;;20.67;17.87;;;7.40;85.30;;;;;;10486509;28;20217;-79
2021/03/10 00:36:22;;;;;;;20.80;18.00;;;7.40;85.00;;;;;;10493406;28;20568;-79
2021/03/10 00:41:24;;;;;;;22.60;20.20;;;7.40;85.20;;;;;;10486455;28;20212;-79
2021/03/10 00:46:26;;;;;;;23.20;19.90;;;7.40;85.40;;;;;;10493835;28;20208;-79
2021/03/10 00:51:27;;;;;;;23.93;19.90;;;7.30;86.00;;;;;;10491626;28;20700;-79
2021/03/10 00:56:30;;;;;;;25.90;21.50;;;7.30;86.60;;;;;;10504866;28;20703;-79
2021/03/10 01:01:31;;;;;;;27.33;21.43;;;7.30;87.20;;;;;;10505527;28;20225;-79
2021/03/10 01:06:33;;;;;;;23.17;20.13;;;7.30;87.50;;;;;;10470718;28;20839;-79
2021/03/10 01:11:36;;;;;;;28.53;22.73;;;7.30;87.30;;;;;;10470608;28;20221;-79
2021/03/10 01:16:38;;;;;;;27.63;21.60;;;7.30;87.30;;;;;;10489278;28;20196;-79
2021/03/10 01:21:39;;;;;;;29.37;22.00;;;7.30;87.60;;;;;;10493625;28;20271;-79
2021/03/10 01:26:42;;;;;;;28.10;22.73;;;7.30;87.90;;;;;;10486940;28;20533;-79
2021/03/10 01:31:43;;;;;;;26.77;21.67;;;7.30;88.10;;;;;;10501742;28;20730;-79
2021/03/10 01:36:45;;;;;;;27.60;22.30;;;7.20;88.20;;;;;;10506279;28;20246;-79
2021/03/10 01:41:48;;;;;;;25.27;21.07;;;7.20;88.50;;;;;;10505849;28;20209;-79
2021/03/10 01:46:50;;;;;;;32.33;24.10;;;7.10;88.50;;;;;;10508006;28;20230;-79
2021/03/10 01:51:51;;;;;;;28.67;22.97;;;7.10;88.60;;;;;;10504221;28;20228;-79
2021/03/10 01:56:54;;;;;;;28.03;22.93;;;7.10;88.70;;;;;;10503713;28;20208;-79
2021/03/10 02:01:56;;;;;;;30.10;24.60;;;7.10;88.80;;;;;;10496703;28;20240;-79
2021/03/10 02:07:08;;;;;;;29.53;23.77;;;7.00;88.80;;;;;;10500971;28;20293;-78
2021/03/10 02:12:22;;;;;;;29.63;24.47;;;7.00;88.70;;;;;;10516526;22;20316;-78
2021/03/10 02:17:27;;;;;;;31.27;24.90;;;7.00;88.80;;;;;;10501757;28;20208;-78
2021/03/10 02:22:46;;;;;;;31.67;25.10;;;6.90;89.20;;;;;;10473250;28;20328;-79
2021/03/10 02:27:51;;;;;;;28.47;23.53;;;6.80;89.40;;;;;;10425001;28;20260;-79
2021/03/10 02:32:55;;;;;;;31.33;25.10;;;6.90;89.90;;;;;;10427620;28;20278;-79
2021/03/10 02:37:59;;;;;;;31.23;25.80;;;6.90;89.80;;;;;;10467761;28;20194;-79
2021/03/10 02:43:02;;;;;;;32.00;25.40;;;6.80;89.70;;;;;;10443380;28;20243;-79
2021/03/10 02:48:05;;;;;;;37.00;28.10;;;6.90;90.20;;;;;;10444352;28;20217;-79
2021/03/10 02:53:08;;;;;;;33.00;26.90;;;6.90;90.00;;;;;;10462435;28;20308;-79
2021/03/10 02:58:11;;;;;;;36.83;27.47;;;7.00;90.10;;;;;;10445664;28;20426;-79
2021/03/10 03:03:13;;;;;;;30.40;24.10;;;7.00;89.80;;;;;;10456753;28;20296;-78
2021/03/10 03:08:15;;;;;;;32.40;24.67;;;7.10;90.00;;;;;;10438423;28;20640;-79
2021/03/10 03:13:20;;;;;;;33.57;26.60;;;7.10;89.70;;;;;;10455524;28;20734;-78
2021/03/10 03:18:22;;;;;;;31.93;25.23;;;7.10;89.60;;;;;;10455593;28;20193;-78
2021/03/10 03:23:24;;;;;;;31.70;25.13;;;7.20;89.90;;;;;;10454463;28;20696;-78
2021/03/10 03:28:28;;;;;;;30.47;24.63;;;7.20;89.60;;;;;;10447906;28;20228;-78
2021/03/10 03:33:31;;;;;;;28.87;24.20;;;7.20;89.90;;;;;;10458027;28;20251;-79
2021/03/10 03:38:33;;;;;;;32.83;25.40;;;7.20;89.70;;;;;;10457604;28;20224;-79
2021/03/10 03:43:36;;;;;;;31.80;25.83;;;7.10;89.50;;;;;;10421311;28;20232;-79
2021/03/10 03:48:37;;;;;;;34.03;24.87;;;7.10;89.70;;;;;;10457724;28;20272;-78
2021/03/10 03:53:39;;;;;;;32.53;27.07;;;7.10;90.00;;;;;;10439274;28;20312;-78
2021/03/10 03:58:41;;;;;;;35.10;26.40;;;7.10;90.00;;;;;;10422921;28;20204;-78
2021/03/10 04:03:45;;;;;;;34.83;26.93;;;7.00;90.00;;;;;;10459450;28;20217;-79
2021/03/10 04:08:47;;;;;;;30.63;24.90;;;7.00;90.00;;;;;;10459312;28;20240;-79
2021/03/10 04:13:50;;;;;;;35.03;27.20;;;7.00;90.00;;;;;;10460732;28;20228;-78
2021/03/10 04:18:52;;;;;;;35.97;26.40;;;7.00;90.10;;;;;;10439616;28;20194;-79
2021/03/10 04:23:53;;;;;;;32.53;26.20;;;7.00;90.00;;;;;;10457337;28;20221;-79
2021/03/10 04:28:56;;;;;;;34.23;26.90;;;7.00;90.00;;;;;;10440160;28;20224;-78
2021/03/10 04:33:57;;;;;;;35.67;28.47;;;6.90;90.20;;;;;;10440836;28;20327;-79
2021/03/10 04:38:59;;;;;;;34.70;27.67;;;6.90;90.20;;;;;;10424571;28;20247;-79
2021/03/10 04:44:01;;;;;;;38.40;26.93;;;6.90;90.30;;;;;;10470289;28;20267;-77
2021/03/10 04:49:03;;;;;;;35.43;27.33;;;7.00;90.30;;;;;;10459063;28;20741;-78
2021/03/10 04:54:05;;;;;;;31.43;25.20;;;7.00;90.40;;;;;;10455981;28;20796;-79
2021/03/10 04:59:07;;;;;;;34.47;26.70;;;7.00;90.20;;;;;;10445453;28;20280;-79
2021/03/10 05:04:09;;;;;;;38.40;30.03;;;7.00;90.30;;;;;;10443704;28;20228;-78
2021/03/10 05:09:10;;;;;;;36.53;26.90;;;6.90;90.30;;;;;;10447276;28;20267;-78
2021/03/10 05:14:13;;;;;;;33.17;27.77;;;6.90;90.20;;;;;;10457265;28;20664;-79
2021/03/10 05:19:15;;;;;;;39.63;29.40;;;6.90;90.20;;;;;;10461172;28;20681;-78
2021/03/10 05:24:16;;;;;;;36.30;28.60;;;6.90;90.20;;;;;;10462880;28;20304;-78
2021/03/10 05:29:19;;;;;;;38.47;27.70;;;6.90;90.10;;;;;;10426881;28;20250;-79
2021/03/10 05:34:20;;;;;;;37.73;28.07;;;6.90;90.20;;;;;;10453967;28;20245;-78
2021/03/10 05:39:23;;;;;;;37.33;29.47;;;6.90;90.20;;;;;;10468626;28;20224;-80
2021/03/10 05:44:26;;;;;;;33.50;26.97;;;6.90;90.20;;;;;;10423252;28;20287;-79
2021/03/10 05:49:28;;;;;;;44.33;30.37;;;6.90;90.40;;;;;;10420391;28;20308;-78
2021/03/10 05:54:31;;;;;;;36.40;28.00;;;6.90;90.20;;;;;;10429081;28;20317;-80
2021/03/10 05:59:33;;;;;;;35.33;28.37;;;6.90;90.30;;;;;;10433915;28;20228;-81
2021/03/10 06:04:39;;;;;;;35.43;27.07;;;7.00;90.40;;;;;;10426041;28;20236;-80
2021/03/10 06:09:41;;;;;;;37.93;27.73;;;7.00;90.10;;;;;;10446295;28;20225;-80
2021/03/10 06:14:44;;;;;;;39.20;28.37;;;7.10;90.20;;;;;;10430968;28;20241;-80
2021/03/10 06:19:46;;;;;;;33.60;25.17;;;7.10;90.00;;;;;;10471115;28;20275;-80
2021/03/10 06:25:00;;;;;;;35.13;27.03;;;7.10;90.00;;;;;;10437786;28;20232;-79
2021/03/10 06:30:03;;;;;;;33.63;25.70;;;7.20;90.00;;;;;;10448673;28;20255;-80
2021/03/10 06:35:06;;;;;;;35.40;26.60;;;7.20;90.00;;;;;;10419236;28;20304;-77
2021/03/10 06:40:09;;;;;;;32.47;23.73;;;7.20;90.10;;;;;;10437594;28;20190;-78
2021/03/10 06:45:12;;;;;;;34.13;26.53;;;7.30;90.10;;;;;;10431685;28;20260;-82
2021/03/10 06:50:15;;;;;;;37.37;26.50;;;7.30;90.00;;;;;;10449513;28;20229;-78
2021/03/10 06:55:18;;;;;;;33.87;26.83;;;7.40;89.80;;;;;;10436151;28;20304;-82
2021/03/10 07:00:22;;;;;;;34.80;27.67;;;7.50;89.70;;;;;;10436130;28;20202;-79
2021/03/10 07:05:24;;;;;;;34.50;26.97;;;7.50;89.40;;;;;;10423250;28;20214;-77
2021/03/10 07:10:28;;;;;;;34.87;27.30;;;7.50;89.60;;;;;;10423652;28;20692;-76
2021/03/10 07:15:31;;;;;;;31.33;25.23;;;7.50;89.70;;;;;;10414842;28;20704;-78
2021/03/10 07:20:33;;;;;;;33.23;26.27;;;7.50;89.80;;;;;;10402073;28;20551;-78
2021/03/10 07:25:36;;;;;;;29.43;24.60;;;7.60;89.40;;;;;;10442151;28;20660;-78
2021/03/10 07:30:40;;;;;;;36.60;28.67;;;7.60;89.10;;;;;;10410138;28;20240;-80
2021/03/10 07:35:50;;;;;;;32.20;25.57;;;7.70;89.50;;;;;;10426943;28;20518;-80
2021/03/10 07:40:57;;;;;;;31.30;25.63;;;7.80;88.20;;;;;;10444915;28;20248;-78
2021/03/10 07:45:59;;;;;;;32.03;26.20;;;7.70;88.60;;;;;;10434034;28;20347;-79
2021/03/10 07:51:01;;;;;;;34.03;25.97;;;7.80;88.80;;;;;;10444965;28;20260;-80
2021/03/10 07:56:04;;;;;;;34.73;25.70;;;7.80;88.60;;;;;;10432376;28;20576;-80
2021/03/10 08:01:15;;;;;;;32.03;26.17;;;7.90;89.00;;;;;;10443540;28;20236;-80
2021/03/10 08:06:16;;;;;;;37.03;28.23;;;7.90;88.60;;;;;;10426855;28;20276;-79
2021/03/10 08:11:19;;;;;;;30.80;25.10;;;8.00;88.50;;;;;;10423938;28;20233;-80
2021/03/10 08:16:21;;;;;;;33.43;25.90;;;8.10;88.30;;;;;;10438380;22;20725;-79
2021/03/10 08:21:24;;;;;;;30.20;24.23;;;8.20;88.00;;;;;;10443294;28;20241;-80
2021/03/10 08:26:26;;;;;;;31.73;25.40;;;8.40;87.80;;;;;;10382948;28;20284;-79
2021/03/10 08:31:29;;;;;;;30.37;24.00;;;8.50;87.40;;;;;;10407634;28;20222;-79
2021/03/10 08:36:32;;;;;;;33.20;23.80;;;8.60;87.30;;;;;;10414266;28;20649;-79
2021/03/10 08:41:44;;;;;;;35.67;25.40;;;8.80;86.70;;;;;;10408436;28;20250;-79
2021/03/10 08:46:47;;;;;;;31.50;22.63;;;9.00;85.80;;;;;;10408899;28;20202;-79
2021/03/10 08:51:49;;;;;;;34.97;25.40;;;9.10;85.50;;;;;;10416851;28;20218;-79
2021/03/10 08:56:51;;;;;;;33.13;23.80;;;9.20;85.80;;;;;;10419468;28;20547;-79
2021/03/10 09:01:54;;;;;;;30.00;23.17;;;9.40;85.40;;;;;;10416776;28;20886;-78
2021/03/10 09:06:57;;;;;;;27.57;21.30;;;9.60;84.70;;;;;;10407341;28;20212;-79
2021/03/10 09:12:00;;;;;;;30.33;23.07;;;9.80;85.00;;;;;;10398766;28;20309;-79
2021/03/10 09:17:17;;;;;;;28.50;22.17;;;10.10;82.00;;;;;;10405442;28;20294;-79
2021/03/10 09:22:24;;;;;;;26.97;21.00;;;10.20;82.50;;;;;;10403335;28;20352;-79
2021/03/10 09:27:31;;;;;;;26.37;20.07;;;10.40;80.60;;;;;;10399628;28;20256;-79
2021/03/10 09:32:42;;;;;;;30.00;21.50;;;10.50;80.70;;;;;;10400860;28;20226;-80
2021/03/10 09:37:50;;;;;;;27.53;19.80;;;10.70;80.00;;;;;;10412190;28;20506;-79
2021/03/10 09:42:59;;;;;;;23.37;18.10;;;10.80;80.20;;;;;;10398527;28;20236;-80
2021/03/10 09:48:06;;;;;;;22.43;16.87;;;10.80;78.50;;;;;;10393328;28;20344;-79
2021/03/10 09:53:17;;;;;;;20.63;15.93;;;11.00;76.80;;;;;;10376380;28;20649;-80
2021/03/10 09:58:22;;;;;;;22.07;15.33;;;11.00;74.60;;;;;;10380355;28;20206;-79
2021/03/10 10:03:28;;;;;;;20.10;16.07;;;10.60;72.90;;;;;;10422628;28;20275;-79
2021/03/10 10:08:38;;;;;;;18.97;14.40;;;10.30;74.80;;;;;;10423437;28;20568;-79
2021/03/10 10:13:41;;;;;;;19.70;15.60;;;10.20;72.90;;;;;;10385009;28;20234;-80
2021/03/10 10:18:45;;;;;;;23.20;18.07;;;10.10;74.00;;;;;;10402271;28;20202;-79
2021/03/10 10:23:48;;;;;;;22.43;16.90;;;9.90;75.30;;;;;;10387933;28;20238;-79
2021/03/10 10:28:54;;;;;;;21.33;16.60;;;10.00;75.10;;;;;;10402712;28;20217;-79
2021/03/10 10:33:58;;;;;;;15.87;11.80;;;10.20;74.00;;;;;;10386919;28;20229;-79
2021/03/10 10:39:01;;;;;;;16.10;13.33;;;10.40;73.30;;;;;;10386658;28;20228;-80
2021/03/10 10:44:04;;;;;;;13.53;9.97;;;10.50;72.70;;;;;;10394068;28;20222;-80
2021/03/10 10:49:07;;;;;;;12.87;9.90;;;10.60;70.30;;;;;;10410600;28;20211;-79
2021/03/10 10:54:12;;;;;;;11.13;8.67;;;10.70;67.70;;;;;;10405977;28;20221;-79
2021/03/10 10:59:16;;;;;;;5.70;4.73;;;10.80;65.90;;;;;;10395985;28;20209;-79
2021/03/10 11:04:24;;;;;;;7.10;5.80;;;10.90;63.70;;;;;;10411079;28;20245;-79
2021/03/10 11:09:26;;;;;;;6.90;6.20;;;10.90;62.70;;;;;;10413700;28;20249;-80
2021/03/10 11:14:28;;;;;;;5.70;5.10;;;10.90;61.20;;;;;;10411288;28;20230;-79
2021/03/10 11:19:39;;;;;;;6.57;4.80;;;10.90;61.40;;;;;;10411612;28;20197;-79
2021/03/10 11:24:45;;;;;;;5.17;4.67;;;11.00;61.30;;;;;;10411451;28;20218;-79
2021/03/10 11:29:49;;;;;;;5.30;4.80;;;11.10;61.30;;;;;;10411186;28;20226;-79
2021/03/10 11:34:51;;;;;;;4.67;3.97;;;11.10;58.80;;;;;;10411677;28;20229;-80
2021/03/10 11:39:55;;;;;;;6.10;5.03;;;11.20;59.20;;;;;;10410759;28;20205;-80
2021/03/10 11:44:57;;;;;;;4.67;4.17;;;11.30;59.10;;;;;;10411124;28;20308;-79
2021/03/10 11:50:00;;;;;;;8.40;6.60;;;11.40;59.30;;;;;;10410022;28;20226;-79
2021/03/10 11:55:02;;;;;;;6.07;5.17;;;11.50;58.50;;;;;;10410856;28;20230;-79
2021/03/10 12:00:05;;;;;;;7.93;5.40;;;11.50;58.50;;;;;;10404800;28;20198;-79
2021/03/10 12:05:16;;;;;;;5.43;4.93;;;11.60;58.20;;;;;;10406501;28;20344;-78
2021/03/10 12:10:18;;;;;;;6.03;5.43;;;11.60;58.30;;;;;;10412106;28;20221;-78
2021/03/10 12:15:20;;;;;;;7.97;6.30;;;11.60;57.70;;;;;;10419314;28;20635;-79
2021/03/10 12:20:23;;;;;;;6.60;6.00;;;11.60;57.70;;;;;;10418325;28;20206;-80
2021/03/10 12:25:25;;;;;;;11.93;6.00;;;11.80;58.20;;;;;;10417617;28;20271;-79
2021/03/10 12:30:27;;;;;;;6.00;5.40;;;11.80;57.80;;;;;;10419097;28;20284;-79
2021/03/10 12:35:29;;;;;;;5.03;4.53;;;11.90;57.00;;;;;;10415344;28;20221;-79
2021/03/10 12:40:31;;;;;;;6.07;5.07;;;11.90;57.70;;;;;;10416478;28;20209;-79
2021/03/10 12:45:33;;;;;;;7.70;5.23;;;12.00;57.30;;;;;;10413845;28;20304;-79
2021/03/10 12:50:35;;;;;;;5.77;4.43;;;11.90;57.00;;;;;;10412358;28;20300;-79
2021/03/10 12:55:37;;;;;;;5.17;4.67;;;11.80;57.20;;;;;;10415326;28;20222;-79
2021/03/10 13:00:39;;;;;;;6.33;5.53;;;11.90;56.90;;;;;;10418198;28;20277;-79
2021/03/10 13:05:42;;;;;;;6.17;5.20;;;11.90;57.10;;;;;;10429263;28;20252;-79
2021/03/10 13:10:43;;;;;;;4.73;3.90;;;11.90;57.00;;;;;;10411865;28;20249;-79
2021/03/10 13:15:45;;;;;;;6.30;4.50;;;11.90;57.10;;;;;;10400822;28;20706;-80
2021/03/10 13:20:48;;;;;;;4.73;4.20;;;11.80;56.50;;;;;;10400475;28;20237;-78
2021/03/10 13:25:50;;;;;;;6.13;4.50;;;11.70;56.90;;;;;;10398444;28;20222;-79
2021/03/10 13:30:52;;;;;;;5.63;4.37;;;11.80;57.40;;;;;;10405573;28;20381;-79
2021/03/10 13:35:54;;;;;;;4.93;4.47;;;11.80;57.80;;;;;;10387768;28;20260;-79
2021/03/10 13:40:56;;;;;;;6.03;4.50;;;11.80;56.40;;;;;;10405077;28;20205;-80
2021/03/10 13:45:58;;;;;;;5.13;4.50;;;11.80;57.40;;;;;;10404464;28;20294;-79
2021/03/10 13:51:01;;;;;;;4.33;3.93;;;11.80;55.60;;;;;;10404688;28;20217;-79
2021/03/10 13:56:02;;;;;;;4.20;3.30;;;11.80;56.20;;;;;;10414743;28;20363;-80
2021/03/10 14:01:05;;;;;;;4.60;4.10;;;11.90;55.10;;;;;;10411293;28;20242;-79
2021/03/10 14:06:07;;;;;;;4.80;4.30;;;12.00;56.80;;;;;;10403132;28;20452;-79
2021/03/10 14:11:09;;;;;;;5.90;4.30;;;12.00;53.60;;;;;;10412469;28;20221;-79
2021/03/10 14:16:10;;;;;;;5.87;5.27;;;11.90;56.10;;;;;;10414271;28;20558;-79
2021/03/10 14:21:13;;;;;;;6.17;5.57;;;11.70;54.50;;;;;;10406526;28;20201;-79
2021/03/10 14:26:15;;;;;;;6.77;6.00;;;11.50;54.60;;;;;;10400924;28;20705;-78
2021/03/10 14:31:16;;;;;;;5.57;4.97;;;11.40;54.80;;;;;;10414380;28;20221;-79
2021/03/10 14:36:19;;;;;;;6.77;5.60;;;11.30;55.90;;;;;;10421818;28;20234;-79
2021/03/10 14:41:21;;;;;;;6.13;5.53;;;11.30;57.00;;;;;;10406680;28;20202;-78
2021/03/10 14:46:22;;;;;;;5.37;4.87;;;11.30;56.50;;;;;;10413520;28;20217;-78
2021/03/10 14:51:25;;;;;;;5.70;5.17;;;11.30;54.50;;;;;;10412857;28;20237;-79
2021/03/10 14:56:27;;;;;;;5.20;4.80;;;11.30;54.10;;;;;;10412779;28;20225;-78
2021/03/10 15:01:28;;;;;;;5.03;4.53;;;11.30;55.00;;;;;;10413454;28;20209;-78
2021/03/10 15:06:31;;;;;;;6.00;5.40;;;11.20;56.00;;;;;;10411364;28;20222;-78
2021/03/10 15:11:33;;;;;;;6.13;5.53;;;11.10;55.70;;;;;;10421999;28;20284;-79
2021/03/10 15:16:36;;;;;;;5.73;4.80;;;11.00;55.90;;;;;;10407163;28;20253;-78
2021/03/10 15:21:38;;;;;;;5.30;4.17;;;11.00;56.30;;;;;;10405139;28;20233;-79
2021/03/10 15:26:40;;;;;;;5.90;5.20;;;11.10;57.00;;;;;;10397023;28;20579;-79
2021/03/10 15:31:42;;;;;;;7.17;5.77;;;11.10;55.20;;;;;;10395299;28;20257;-79
2021/03/10 15:36:44;;;;;;;7.03;5.97;;;11.00;55.20;;;;;;10401938;28;20226;-79
2021/03/10 15:41:46;;;;;;;6.57;5.07;;;10.90;55.50;;;;;;10408620;28;20282;-79
2021/03/10 15:46:47;;;;;;;4.93;4.27;;;10.80;55.40;;;;;;10427659;28;20205;-79
2021/03/10 15:51:50;;;;;;;6.00;5.20;;;10.70;55.40;;;;;;10396597;28;20926;-78
2021/03/10 15:56:52;;;;;;;4.50;4.00;;;10.70;57.50;;;;;;10408937;28;20209;-79
2021/03/10 16:01:53;;;;;;;5.37;4.57;;;10.60;57.00;;;;;;10411440;28;20189;-78
2021/03/10 16:06:56;;;;;;;4.87;4.33;;;10.50;56.10;;;;;;10410398;28;20206;-79
2021/03/10 16:11:58;;;;;;;5.30;4.77;;;10.50;55.90;;;;;;10422975;28;20415;-78
2021/03/10 16:16:59;;;;;;;6.47;4.73;;;10.40;57.00;;;;;;10400971;28;20280;-78
2021/03/10 16:22:03;;;;;;;6.30;5.60;;;10.40;56.10;;;;;;10408677;28;20248;-79
2021/03/10 16:27:05;;;;;;;5.40;4.90;;;10.40;56.70;;;;;;10411446;28;20201;-79
2021/03/10 16:32:25;;;;;;;6.97;6.20;;;10.30;57.00;;;;;;10415055;28;20235;-80
2021/03/10 16:37:32;;;;;;;6.43;5.83;;;10.20;57.00;;;;;;10397689;28;20206;-79
2021/03/10 16:42:34;;;;;;;6.80;6.03;;;10.20;57.20;;;;;;10392222;28;20214;-79
2021/03/10 16:47:36;;;;;;;7.20;6.50;;;10.20;58.70;;;;;;10407724;28;20206;-79
2021/03/10 16:52:38;;;;;;;6.77;6.07;;;10.20;58.10;;;;;;10389133;28;20233;-79
2021/03/10 16:57:40;;;;;;;6.23;5.37;;;10.20;58.00;;;;;;10408301;28;20271;-79
2021/03/10 17:02:42;;;;;;;5.70;4.83;;;10.10;58.60;;;;;;10416117;28;20250;-79
2021/03/10 17:07:44;;;;;;;9.27;5.60;;;10.10;59.30;;;;;;10409583;28;20213;-78
2021/03/10 17:12:46;;;;;;;5.30;4.80;;;10.00;59.40;;;;;;10404846;28;20233;-80
2021/03/10 17:17:48;;;;;;;5.50;4.97;;;9.90;60.80;;;;;;10413927;28;20206;-79
2021/03/10 17:22:50;;;;;;;5.10;4.60;;;9.80;61.60;;;;;;10416724;28;20729;-79
2021/03/10 17:27:52;;;;;;;6.70;4.67;;;9.70;61.50;;;;;;10413477;28;20579;-78
2021/03/10 17:32:53;;;;;;;6.70;5.03;;;9.50;61.80;;;;;;10414372;28;20308;-79
2021/03/10 17:37:56;;;;;;;6.70;6.00;;;9.40;62.10;;;;;;10417798;28;20206;-79
2021/03/10 17:42:59;;;;;;;5.70;4.83;;;9.30;62.10;;;;;;10403744;28;20693;-78
2021/03/10 17:48:04;;;;;;;6.73;6.13;;;9.20;61.60;;;;;;10410041;28;20283;-79
2021/03/10 17:53:06;;;;;;;5.87;5.27;;;9.10;62.50;;;;;;10434105;28;20244;-80
2021/03/10 17:58:08;;;;;;;6.03;5.50;;;9.00;62.00;;;;;;10421956;28;20206;-77
2021/03/10 18:03:10;;;;;;;6.80;6.10;;;8.90;61.70;;;;;;10418890;28;21049;-79
2021/03/10 18:08:12;;;;;;;8.50;5.50;;;8.80;62.80;;;;;;10404132;28;20281;-79
2021/03/10 18:13:14;;;;;;;6.47;5.77;;;8.80;63.10;;;;;;10397906;28;20241;-79
2021/03/10 18:18:16;;;;;;;8.07;7.27;;;8.80;63.70;;;;;;10403164;28;20197;-79
2021/03/10 18:23:19;;;;;;;12.80;9.70;;;8.80;63.60;;;;;;10399851;28;20226;-78
2021/03/10 18:28:20;;;;;;;9.30;8.03;;;8.80;62.80;;;;;;10381411;28;20217;-77
2021/03/10 18:33:22;;;;;;;7.03;6.13;;;8.70;63.10;;;;;;10402736;28;20979;-77
2021/03/10 18:38:24;;;;;;;9.30;7.10;;;8.70;63.30;;;;;;10404140;28;20296;-77
2021/03/10 18:43:26;;;;;;;8.43;7.53;;;8.70;64.30;;;;;;10407125;28;20698;-77
2021/03/10 18:48:28;;;;;;;8.23;7.30;;;8.70;64.10;;;;;;10403391;28;20653;-77
2021/03/10 18:53:31;;;;;;;8.37;7.23;;;8.60;63.80;;;;;;10402609;28;20226;-77
2021/03/10 18:58:32;;;;;;;8.73;7.20;;;8.60;63.60;;;;;;10404164;28;20206;-77
2021/03/10 19:03:34;;;;;;;7.63;6.80;;;8.60;64.70;;;;;;10403929;28;20232;-77
2021/03/10 19:08:37;;;;;;;8.70;7.57;;;8.50;64.00;;;;;;10402993;28;20234;-77
2021/03/10 19:13:38;;;;;;;6.97;6.23;;;8.50;64.20;;;;;;10401192;28;20229;-77
2021/03/10 19:18:40;;;;;;;7.00;6.30;;;8.50;64.40;;;;;;10401612;28;20692;-77
2021/03/10 19:23:43;;;;;;;7.80;6.97;;;8.50;64.80;;;;;;10402479;28;20242;-78
2021/03/10 19:28:44;;;;;;;8.47;6.63;;;8.40;65.30;;;;;;10396972;28;20209;-77
2021/03/10 19:33:46;;;;;;;7.90;7.17;;;8.40;65.40;;;;;;10403040;28;20522;-77
2021/03/10 19:38:48;;;;;;;8.20;7.37;;;8.30;65.30;;;;;;10401047;28;20209;-77
2021/03/10 19:43:50;;;;;;;9.63;7.57;;;8.30;65.60;;;;;;10402605;28;20233;-77
2021/03/10 19:48:53;;;;;;;9.10;8.03;;;8.30;65.50;;;;;;10415816;28;20740;-76
2021/03/10 19:53:55;;;;;;;8.90;7.83;;;8.30;65.00;;;;;;10395751;28;20265;-77
2021/03/10 19:58:57;;;;;;;9.20;8.30;;;8.30;65.10;;;;;;10401982;28;20210;-78
2021/03/10 20:03:59;;;;;;;9.70;8.70;;;8.30;65.00;;;;;;10403135;28;20230;-77
2021/03/10 20:09:02;;;;;;;9.60;8.40;;;8.30;65.40;;;;;;10391107;28;20519;-78
2021/03/10 20:14:03;;;;;;;10.53;8.83;;;8.30;66.00;;;;;;10434027;22;20245;-79
2021/03/10 20:19:05;;;;;;;10.60;9.20;;;8.30;65.80;;;;;;10447606;28;20235;-78
2021/03/10 20:24:09;;;;;;;10.97;9.43;;;8.40;66.00;;;;;;10433755;28;20228;-79
2021/03/10 20:29:11;;;;;;;10.40;8.90;;;8.40;65.90;;;;;;10435768;28;20615;-79
2021/03/10 20:34:13;;;;;;;12.10;9.57;;;8.40;66.40;;;;;;10408615;28;20230;-77
2021/03/10 20:39:15;;;;;;;9.40;8.40;;;8.50;66.30;;;;;;10416950;28;20622;-78
2021/03/10 20:44:17;;;;;;;12.70;9.33;;;8.50;67.20;;;;;;10435538;28;20699;-78
2021/03/10 20:49:18;;;;;;;13.27;10.00;;;8.50;67.20;;;;;;10412868;28;20248;-78
2021/03/10 20:54:21;;;;;;;12.70;9.80;;;8.60;67.10;;;;;;10390494;28;20695;-78
2021/03/10 20:59:23;;;;;;;11.63;9.50;;;8.60;67.20;;;;;;10401262;28;20243;-78
2021/03/10 21:04:24;;;;;;;11.97;10.00;;;8.70;67.30;;;;;;10394383;28;20672;-77
2021/03/10 21:09:27;;;;;;;12.50;10.20;;;8.70;67.80;;;;;;10412015;28;20273;-78
2021/03/10 21:14:28;;;;;;;16.10;13.00;;;8.70;67.50;;;;;;10393980;28;20510;-77
2021/03/10 21:19:32;;;;;;;14.60;12.83;;;8.70;67.40;;;;;;10391251;28;20208;-77
2021/03/10 21:24:35;;;;;;;15.90;13.00;;;8.70;67.60;;;;;;10418187;28;20315;-77
2021/03/10 21:29:37;;;;;;;15.23;13.60;;;8.70;68.00;;;;;;10436963;28;20217;-76
2021/03/10 21:34:38;;;;;;;16.50;13.57;;;8.60;67.90;;;;;;10389102;28;20324;-78
2021/03/10 21:39:41;;;;;;;14.67;11.37;;;8.60;68.50;;;;;;10404544;28;20229;-77
2021/03/10 21:44:42;;;;;;;13.70;10.27;;;8.60;68.10;;;;;;10417102;28;20229;-77
2021/03/10 21:49:44;;;;;;;13.50;11.10;;;8.60;67.90;;;;;;10425699;28;20653;-77
2021/03/10 21:54:46;;;;;;;12.63;10.60;;;8.60;67.70;;;;;;10396007;28;20237;-77
2021/03/10 21:59:48;;;;;;;11.87;10.60;;;8.60;68.50;;;;;;10403574;28;20263;-77
2021/03/10 22:04:50;;;;;;;12.43;10.23;;;8.70;67.80;;;;;;10402800;28;20299;-77
2021/03/10 22:09:52;;;;;;;12.90;10.70;;;8.60;69.00;;;;;;10412098;28;20220;-78
2021/03/10 22:14:54;;;;;;;11.40;9.67;;;8.70;67.10;;;;;;10387508;28;20279;-77
2021/03/10 22:19:56;;;;;;;15.00;10.77;;;8.70;65.70;;;;;;10403956;28;20202;-77
2021/03/10 22:24:58;;;;;;;15.33;11.87;;;8.80;64.20;;;;;;10385640;28;20637;-78
2021/03/10 22:30:01;;;;;;;10.37;9.00;;;8.90;63.60;;;;;;10404896;28;20226;-78
2021/03/10 22:35:04;;;;;;;11.47;10.17;;;8.90;62.80;;;;;;10403081;28;20225;-78
2021/03/10 22:40:08;;;;;;;11.40;10.20;;;9.00;62.50;;;;;;10410086;28;20228;-78
2021/03/10 22:45:09;;;;;;;12.90;9.73;;;9.10;62.70;;;;;;10409502;28;20316;-78
2021/03/10 22:50:14;;;;;;;12.47;11.20;;;9.10;62.10;;;;;;10392823;28;20225;-78
2021/03/10 22:55:16;;;;;;;10.57;9.50;;;9.20;61.40;;;;;;10410394;28;20241;-77
2021/03/10 23:00:27;;;;;;;12.17;10.83;;;9.30;62.00;;;;;;10409506;28;20202;-79
2021/03/10 23:05:31;;;;;;;14.17;10.23;;;9.30;61.20;;;;;;10391263;28;20226;-78
2021/03/10 23:10:34;;;;;;;12.10;10.90;;;9.30;62.40;;;;;;10408453;28;20242;-79
2021/03/10 23:15:37;;;;;;;12.80;11.57;;;9.40;60.70;;;;;;10418189;28;20257;-78
2021/03/10 23:20:40;;;;;;;14.50;12.17;;;9.40;61.00;;;;;;10405946;28;20744;-78
2021/03/10 23:25:44;;;;;;;11.73;10.17;;;9.40;61.00;;;;;;10411747;28;20226;-78
2021/03/10 23:30:47;;;;;;;13.13;10.70;;;9.40;61.40;;;;;;10412016;28;20237;-78
2021/03/10 23:35:49;;;;;;;13.73;11.10;;;9.40;60.80;;;;;;10400673;28;20648;-77
2021/03/10 23:40:52;;;;;;;16.70;12.03;;;9.40;61.50;;;;;;10395612;28;20199;-76
2021/03/10 23:45:53;;;;;;;12.27;10.07;;;9.40;61.20;;;;;;10392674;28;20583;-78
2021/03/10 23:50:56;;;;;;;12.73;10.97;;;9.50;61.30;;;;;;10397637;28;20210;-78
2021/03/10 23:56:00;;;;;;;13.43;11.30;;;9.50;61.50;;;;;;10409168;28;20222;-79
